KSWO

Stillwater Regional Airport

Stillwater, Oklahoma, USA
METAR KSWO 190853Z AUTO 19004KT 10SM CLR 24/19 A2992 RMK AO2 SLP115 T02390194 56005
Observed Flight Rules
Sep-19 @ 08:53 UTC (40 minutes ago) Visual Flight Rules
Wind Visibility Clouds
190° at 4 knots 10 miles
  • Clear skies
Temperatures Readings
Current 24°C / 75°F
Dewpoint 19°C / 66°F
Humidity 74%
Altimeter 29.92" Hg
Pressure 1011.5 hPa
Elevation 290
METAR KSWO 190853Z AUTO 19004KT 10SM CLR 24/19 A2992 RMK AO2 SLP115 T02390194 56005
Observed Flight Rules
Sep-19 @ 08:53 UTC
(40 minutes ago)
VFR
Wind Visibility
190° at 4 knots 10 miles
Clouds
  • Clear skies
Temperature Dewpoint
24°C / 75°F 19°C / 66°F
Humidity Altimeter Pressure
74% 29.92" Hg 1011.5 hPa